Time;durP1;ratioP1;P1;durP2;ratioP2;P2;SDS_P1;SDS_P2;PMS_P1;PMS_P2;Temp;Humidity;BMP_temperature;BMP_pressure;BME280_temperature;BME280_humidity;BME280_pressure;Samples;Min_cycle;Max_cycle;Signal;HPM_P1;HPM_P2
2023/11/22 00:02:02;;;;;;;1999.90;999.90;;;7.60;99.90;;;;;;4993040;28;20499;-70
2023/11/22 00:04:27;;;;;;;1999.90;999.90;;;7.60;99.90;;;;;;4993108;28;20170;-70
2023/11/22 00:06:53;;;;;;;1999.90;999.90;;;7.50;99.90;;;;;;4993045;28;20180;-70
2023/11/22 00:09:22;;;;;;;1999.90;999.90;;;7.50;99.90;;;;;;4993071;28;20305;-70
2023/11/22 00:11:48;;;;;;;1999.90;999.90;;;7.50;99.90;;;;;;4992637;28;20193;-70
2023/11/22 00:14:14;;;;;;;1999.90;999.90;;;7.50;99.90;;;;;;4992890;28;20496;-70
2023/11/22 00:16:39;;;;;;;1999.90;999.90;;;7.50;99.90;;;;;;4992627;28;20879;-70
2023/11/22 00:19:06;;;;;;;1999.90;999.90;;;7.60;99.90;;;;;;4992893;28;20244;-70
2023/11/22 00:21:32;;;;;;;1999.90;999.90;;;7.50;99.90;;;;;;4992727;28;20201;-70
2023/11/22 00:23:57;;;;;;;1999.90;999.90;;;7.60;99.90;;;;;;4992836;28;20413;-70
2023/11/22 00:26:23;;;;;;;1999.90;999.90;;;7.60;99.90;;;;;;4992212;28;20181;-70
2023/11/22 00:28:49;;;;;;;1999.90;999.90;;;7.60;99.90;;;;;;4992439;28;20220;-70
2023/11/22 00:31:15;;;;;;;1999.90;999.90;;;7.60;99.90;;;;;;4992332;28;20264;-70
2023/11/22 00:33:40;;;;;;;1999.90;999.90;;;7.60;99.90;;;;;;4992556;28;20448;-70
2023/11/22 00:36:08;;;;;;;1999.90;999.90;;;7.60;99.90;;;;;;4992416;28;20643;-70
2023/11/22 00:38:35;;;;;;;1999.90;999.90;;;7.60;99.90;;;;;;4992757;28;20242;-70
2023/11/22 00:41:02;;;;;;;1999.90;999.90;;;7.70;99.90;;;;;;4992616;28;20512;-70
2023/11/22 00:43:27;;;;;;;1999.90;999.90;;;7.60;99.90;;;;;;4992131;28;20425;-70
2023/11/22 00:45:53;;;;;;;1999.90;999.90;;;7.60;99.90;;;;;;4992366;28;20432;-70
2023/11/22 00:48:19;;;;;;;1999.90;999.90;;;7.60;99.90;;;;;;4992559;28;20658;-70
2023/11/22 00:50:44;;;;;;;1999.90;999.90;;;7.50;99.90;;;;;;4992511;28;20193;-70
2023/11/22 00:53:10;;;;;;;1999.90;999.90;;;7.60;99.90;;;;;;4992493;28;20200;-70
2023/11/22 00:55:36;;;;;;;1999.90;999.90;;;7.50;99.90;;;;;;4992381;28;20202;-70
2023/11/22 00:58:04;;;;;;;1999.90;999.90;;;7.50;99.90;;;;;;4992074;28;20579;-70
2023/11/22 01:00:30;;;;;;;1999.90;999.90;;;7.50;99.90;;;;;;4992070;28;20197;-70
2023/11/22 01:02:56;;;;;;;1999.90;999.90;;;7.50;99.90;;;;;;4992346;28;20420;-70
2023/11/22 01:05:22;;;;;;;1999.90;999.90;;;7.60;99.90;;;;;;4992311;28;20406;-70
2023/11/22 01:07:48;;;;;;;1999.90;999.90;;;7.60;99.90;;;;;;4992541;28;20170;-70
2023/11/22 01:10:15;;;;;;;1999.90;999.90;;;7.50;99.90;;;;;;4992293;28;20490;-70
2023/11/22 01:12:41;;;;;;;1999.90;999.90;;;7.50;99.90;;;;;;4991920;28;20262;-70
2023/11/22 01:15:08;;;;;;;1999.90;999.90;;;7.50;99.90;;;;;;4992003;28;20780;-70
2023/11/22 01:17:34;;;;;;;1999.90;999.90;;;7.50;99.90;;;;;;4992154;28;20416;-70
2023/11/22 01:20:00;;;;;;;1999.90;999.90;;;7.50;99.90;;;;;;4992545;28;20801;-70
2023/11/22 01:22:26;;;;;;;1999.90;999.90;;;7.50;99.90;;;;;;4992455;28;20458;-70
2023/11/22 01:24:51;;;;;;;1999.90;999.90;;;7.50;99.90;;;;;;4992115;28;20432;-70
2023/11/22 01:27:17;;;;;;;1999.90;999.90;;;7.50;99.90;;;;;;4991972;28;20206;-70
2023/11/22 01:29:42;;;;;;;1999.90;999.90;;;7.50;99.90;;;;;;4992047;28;20271;-70
2023/11/22 01:32:08;;;;;;;1999.90;999.90;;;7.40;99.90;;;;;;4991881;28;20209;-70
2023/11/22 01:34:35;;;;;;;1999.90;999.90;;;7.40;99.90;;;;;;4991901;28;20202;-70
2023/11/22 01:37:00;;;;;;;1999.90;999.90;;;7.40;99.90;;;;;;4992187;28;20407;-70
2023/11/22 01:39:26;;;;;;;1999.90;999.90;;;7.40;99.90;;;;;;4993094;28;20972;-70
2023/11/22 01:41:52;;;;;;;1999.90;999.90;;;7.40;99.90;;;;;;4995886;28;20202;-70
2023/11/22 01:44:20;;;;;;;1999.90;999.90;;;7.40;99.90;;;;;;4995120;28;20182;-70
2023/11/22 01:46:46;;;;;;;1999.90;999.90;;;7.30;99.90;;;;;;4987373;28;20444;-70
2023/11/22 01:49:12;;;;;;;1999.90;999.90;;;7.30;99.90;;;;;;4995731;28;20444;-70
2023/11/22 01:51:40;;;;;;;1999.90;999.90;;;7.40;99.90;;;;;;4995659;28;20439;-70
2023/11/22 01:54:07;;;;;;;1999.90;999.90;;;7.40;99.90;;;;;;4995507;28;20531;-70
2023/11/22 01:56:37;;;;;;;1999.90;999.90;;;7.30;99.90;;;;;;4995487;28;20409;-70
2023/11/22 01:59:04;;;;;;;1999.90;999.90;;;7.30;99.90;;;;;;4994926;28;20413;-70
2023/11/22 02:01:31;;;;;;;1999.90;999.90;;;7.30;99.90;;;;;;4995217;28;20448;-70
2023/11/22 02:03:57;;;;;;;1999.90;999.90;;;7.30;99.90;;;;;;4995593;28;20421;-70
2023/11/22 02:06:23;;;;;;;1999.90;999.90;;;7.20;99.90;;;;;;4995163;28;20644;-70
2023/11/22 02:08:49;;;;;;;1999.90;999.90;;;7.20;99.90;;;;;;4995419;28;20832;-70
2023/11/22 02:11:22;;;;;;;1999.90;999.90;;;7.20;99.90;;;;;;4995262;28;20443;-70
2023/11/22 02:13:51;;;;;;;1999.90;999.90;;;7.20;99.90;;;;;;4994501;28;20463;-70
2023/11/22 02:16:20;;;;;;;1999.90;999.90;;;7.10;99.90;;;;;;4994895;28;20420;-70
2023/11/22 02:18:48;;;;;;;1999.90;999.90;;;7.10;99.90;;;;;;4995121;28;20412;-70
2023/11/22 02:21:16;;;;;;;1999.90;999.90;;;7.30;99.90;;;;;;4994982;28;20436;-70
2023/11/22 02:23:42;;;;;;;1999.90;999.90;;;7.00;99.90;;;;;;4995081;28;20420;-70
2023/11/22 02:26:08;;;;;;;1999.90;999.90;;;7.00;99.90;;;;;;4994351;28;20440;-70
2023/11/22 02:28:33;;;;;;;1999.90;999.90;;;7.00;99.90;;;;;;4994248;28;20227;-70
2023/11/22 02:30:59;;;;;;;1999.90;999.90;;;6.90;99.90;;;;;;4994691;28;20821;-70
2023/11/22 02:33:25;;;;;;;1999.90;999.90;;;6.90;99.90;;;;;;4994773;28;20209;-70
2023/11/22 02:35:50;;;;;;;1999.90;999.90;;;7.00;99.90;;;;;;4994667;28;20579;-70
2023/11/22 02:38:18;;;;;;;1999.90;999.90;;;6.90;99.90;;;;;;4994790;28;20172;-70
2023/11/22 02:40:43;;;;;;;1999.90;999.90;;;6.90;99.90;;;;;;4994726;28;20191;-70
2023/11/22 02:43:11;;;;;;;1999.90;999.90;;;6.90;99.90;;;;;;4994132;28;20428;-70
2023/11/22 02:45:36;;;;;;;1999.90;999.90;;;6.80;99.90;;;;;;4994522;28;20183;-70
2023/11/22 02:48:03;;;;;;;1999.90;999.90;;;6.80;99.90;;;;;;4994649;28;20415;-70
2023/11/22 02:50:31;;;;;;;1999.90;999.90;;;6.80;99.90;;;;;;4993761;28;20437;-70
2023/11/22 02:52:58;;;;;;;1999.90;999.90;;;6.70;99.90;;;;;;4994114;28;20452;-70
2023/11/22 02:55:24;;;;;;;1999.90;999.90;;;6.70;99.90;;;;;;4994286;28;20413;-70
2023/11/22 02:57:50;;;;;;;1999.90;999.90;;;6.70;99.90;;;;;;4994243;28;20924;-70
2023/11/22 03:00:18;;;;;;;1999.90;999.90;;;6.50;99.90;;;;;;4994095;28;20927;-70
2023/11/22 03:02:47;;;;;;;1999.90;999.90;;;6.60;99.90;;;;;;4994240;28;20459;-70
2023/11/22 03:05:14;;;;;;;1999.90;999.90;;;6.70;99.90;;;;;;4994228;28;20417;-70
2023/11/22 03:07:41;;;;;;;1999.90;999.90;;;6.60;99.90;;;;;;4994264;28;20409;-70
2023/11/22 03:10:07;;;;;;;1999.90;999.90;;;6.70;99.90;;;;;;4994061;28;20405;-70
2023/11/22 03:12:33;;;;;;;1999.90;999.90;;;6.60;99.90;;;;;;4994284;28;20467;-70
2023/11/22 03:15:01;;;;;;;1999.90;999.90;;;6.60;99.90;;;;;;4993302;28;20436;-70
2023/11/22 03:17:28;;;;;;;1999.90;999.90;;;6.60;99.90;;;;;;4994001;28;20762;-70
2023/11/22 03:19:56;;;;;;;1999.90;999.90;;;6.50;99.90;;;;;;4993937;28;20908;-69
2023/11/22 03:22:25;;;;;;;1999.90;999.90;;;6.50;99.90;;;;;;4993907;28;20448;-70
2023/11/22 03:24:52;;;;;;;1999.90;999.90;;;6.40;99.90;;;;;;4993709;28;20811;-70
2023/11/22 03:27:18;;;;;;;1999.90;999.90;;;6.40;99.90;;;;;;4993780;28;20417;-70
2023/11/22 03:29:44;;;;;;;1999.90;999.90;;;6.40;99.90;;;;;;4993204;28;20435;-70
2023/11/22 03:32:11;;;;;;;1999.90;999.90;;;6.30;99.90;;;;;;4993468;28;20219;-70
2023/11/22 03:34:36;;;;;;;1999.90;999.90;;;6.30;99.90;;;;;;4993345;28;20468;-70
2023/11/22 03:37:02;;;;;;;1999.90;999.90;;;6.30;99.90;;;;;;4993679;28;20404;-69
2023/11/22 03:39:27;;;;;;;1999.90;999.90;;;6.30;99.90;;;;;;4993608;28;20170;-70
2023/11/22 03:41:53;;;;;;;1999.90;999.90;;;6.30;99.90;;;;;;4993476;28;20248;-70
2023/11/22 03:44:19;;;;;;;1999.90;999.90;;;6.30;99.90;;;;;;4992992;28;20738;-70
2023/11/22 03:46:44;;;;;;;1999.90;999.90;;;6.30;99.90;;;;;;4993162;28;20265;-70
2023/11/22 03:49:10;;;;;;;1999.90;999.90;;;6.20;99.90;;;;;;4993430;28;20182;-70
2023/11/22 03:51:38;;;;;;;1999.90;999.90;;;6.20;99.90;;;;;;4993219;28;20228;-69
2023/11/22 03:54:04;;;;;;;1999.90;999.90;;;6.20;99.90;;;;;;4993242;28;20861;-69
2023/11/22 03:56:29;;;;;;;1999.90;999.90;;;6.20;99.90;;;;;;4993282;28;20416;-70
2023/11/22 03:58:55;;;;;;;1999.90;999.90;;;6.10;99.90;;;;;;4992812;28;20205;-69
2023/11/22 04:01:21;;;;;;;1999.90;999.90;;;6.10;99.90;;;;;;4992995;28;20284;-70
2023/11/22 04:03:50;;;;;;;1999.90;999.90;;;6.00;99.90;;;;;;4992710;28;20228;-70
2023/11/22 04:06:16;;;;;;;1999.90;999.90;;;6.00;99.90;;;;;;4992873;28;20427;-70
2023/11/22 04:08:46;;;;;;;1999.90;999.90;;;6.00;99.90;;;;;;4993088;28;20444;-70
2023/11/22 04:11:13;;;;;;;1999.90;999.90;;;6.00;99.90;;;;;;4992900;28;20439;-69
2023/11/22 04:13:38;;;;;;;1999.90;999.90;;;6.00;99.90;;;;;;4992511;28;20456;-69
2023/11/22 04:16:08;;;;;;;1999.90;999.90;;;5.90;99.90;;;;;;4992642;28;20483;-69
2023/11/22 04:18:40;;;;;;;1999.90;999.90;;;5.80;99.90;;;;;;4992941;28;20170;-69
2023/11/22 04:21:06;;;;;;;1999.90;999.90;;;5.80;99.90;;;;;;4992759;28;20440;-69
2023/11/22 04:23:32;;;;;;;1999.90;999.90;;;5.80;99.90;;;;;;4992834;28;20409;-69
2023/11/22 04:26:01;;;;;;;1999.90;999.90;;;5.70;99.90;;;;;;4992694;28;20495;-69
2023/11/22 04:28:29;;;;;;;1999.90;999.90;;;5.60;99.90;;;;;;4992363;28;20963;-68
2023/11/22 04:30:55;;;;;;;1999.90;999.90;;;5.60;99.90;;;;;;4991364;28;20523;-69
2023/11/22 04:33:21;;;;;;;1999.90;999.90;;;5.60;99.90;;;;;;4992460;28;20456;-69
2023/11/22 04:35:51;;;;;;;1999.90;999.90;;;5.50;99.90;;;;;;4992654;28;20856;-69
2023/11/22 04:38:17;;;;;;;1999.90;999.90;;;5.50;99.90;;;;;;4992693;28;20404;-69
2023/11/22 04:40:43;;;;;;;1999.90;999.90;;;5.40;99.90;;;;;;4992532;28;20483;-69
2023/11/22 04:43:09;;;;;;;1999.90;999.90;;;5.40;99.90;;;;;;4992657;28;20483;-70
2023/11/22 04:45:34;;;;;;;1999.90;999.90;;;5.40;99.90;;;;;;4991748;28;20432;-69
2023/11/22 04:48:00;;;;;;;1999.90;999.90;;;5.30;99.90;;;;;;4992517;28;20200;-69
2023/11/22 04:50:26;;;;;;;1999.90;999.90;;;5.30;99.90;;;;;;4992535;28;20612;-69
2023/11/22 04:52:52;;;;;;;1999.90;999.90;;;5.20;99.90;;;;;;4992451;28;20495;-69
2023/11/22 04:55:23;;;;;;;1999.90;999.90;;;5.20;99.90;;;;;;4992333;28;20204;-69
2023/11/22 04:57:49;;;;;;;1999.90;999.90;;;5.20;99.90;;;;;;4992599;28;20487;-69
2023/11/22 05:00:15;;;;;;;1999.90;999.90;;;5.00;99.90;;;;;;4991838;28;20421;-69
2023/11/22 05:02:40;;;;;;;1999.90;999.90;;;5.10;99.90;;;;;;4992117;28;20843;-70
2023/11/22 05:05:07;;;;;;;1999.90;999.90;;;5.10;99.90;;;;;;4992361;28;20412;-69
2023/11/22 05:07:32;;;;;;;1999.90;999.90;;;5.10;99.90;;;;;;4992214;28;20169;-70
2023/11/22 05:09:58;;;;;;;1999.90;999.90;;;5.10;99.90;;;;;;4992484;28;20474;-70
2023/11/22 05:12:24;;;;;;;1999.90;999.90;;;5.10;99.90;;;;;;4992087;28;20194;-70
2023/11/22 05:14:49;;;;;;;1999.90;999.90;;;5.10;99.90;;;;;;4993124;28;20205;-70
2023/11/22 05:17:15;;;;;;;1999.90;999.90;;;5.00;99.90;;;;;;4996260;28;20258;-69
2023/11/22 05:19:41;;;;;;;1999.90;999.90;;;5.00;99.90;;;;;;4996131;28;20201;-69
2023/11/22 05:22:07;;;;;;;1999.90;999.90;;;4.90;99.90;;;;;;4996140;28;20189;-70
2023/11/22 05:24:34;;;;;;;1999.90;999.90;;;4.80;99.90;;;;;;4995984;28;20936;-69
2023/11/22 05:27:00;;;;;;;1999.90;999.90;;;4.80;99.90;;;;;;4996098;28;20954;-69
2023/11/22 05:29:26;;;;;;;1999.90;999.90;;;4.80;99.90;;;;;;4995568;28;20424;-69
2023/11/22 05:31:52;;;;;;;1999.90;999.90;;;4.50;99.90;;;;;;4995512;28;20217;-69
2023/11/22 05:34:18;;;;;;;1999.90;999.90;;;4.30;99.90;;;;;;4995768;28;20202;-69
2023/11/22 05:36:43;;;;;;;1999.90;999.90;;;4.20;99.90;;;;;;4995744;28;20419;-69
2023/11/22 05:39:09;;;;;;;1999.90;999.90;;;4.10;99.90;;;;;;4995939;28;20166;-70
2023/11/22 05:41:35;;;;;;;1999.90;999.90;;;4.10;99.90;;;;;;4995804;28;20569;-69
2023/11/22 05:44:02;;;;;;;1999.90;999.90;;;4.10;99.90;;;;;;4995443;28;20181;-70
2023/11/22 05:46:28;;;;;;;1999.90;999.90;;;4.10;99.90;;;;;;4995295;28;20424;-70
2023/11/22 05:48:56;;;;;;;1999.90;999.90;;;4.10;99.90;;;;;;4995597;28;20416;-70
2023/11/22 05:51:22;;;;;;;1999.90;999.90;;;4.10;99.90;;;;;;4995548;28;20189;-70
2023/11/22 05:53:48;;;;;;;1999.90;999.90;;;4.10;99.90;;;;;;4995404;28;20498;-70
2023/11/22 05:56:14;;;;;;;1999.90;999.90;;;4.00;99.90;;;;;;4995433;28;20166;-70
2023/11/22 05:58:40;;;;;;;1999.90;999.90;;;4.00;99.90;;;;;;4995543;28;20178;-70
2023/11/22 06:01:07;;;;;;;1999.90;999.90;;;3.90;99.90;;;;;;4994705;28;20657;-70
2023/11/22 06:03:35;;;;;;;1999.90;999.90;;;4.00;99.90;;;;;;4992031;28;20240;-70
2023/11/22 06:06:00;;;;;;;1999.90;999.90;;;4.00;99.90;;;;;;4975779;28;20404;-70
2023/11/22 06:08:26;;;;;;;1999.90;999.90;;;4.00;99.90;;;;;;4975859;28;20405;-70
2023/11/22 06:10:52;;;;;;;1999.90;999.90;;;3.90;99.90;;;;;;4975810;28;20197;-70
2023/11/22 06:13:18;;;;;;;1999.90;999.90;;;3.90;99.90;;;;;;4975641;28;20212;-70
2023/11/22 06:15:44;;;;;;;1999.90;999.90;;;3.80;99.90;;;;;;4986405;28;20432;-70
2023/11/22 06:18:10;;;;;;;1999.90;999.90;;;3.80;99.90;;;;;;4995078;28;20441;-70
2023/11/22 06:20:35;;;;;;;1999.90;999.90;;;3.90;99.90;;;;;;4994910;28;20500;-70
2023/11/22 06:23:02;;;;;;;1999.90;999.90;;;3.90;99.90;;;;;;4995014;28;20173;-70
2023/11/22 06:25:27;;;;;;;1999.90;999.90;;;3.90;99.90;;;;;;4994619;28;20594;-70
2023/11/22 06:27:53;;;;;;;1999.90;999.90;;;3.90;99.90;;;;;;4995071;28;20413;-70
2023/11/22 06:30:19;;;;;;;1999.90;999.90;;;3.70;99.90;;;;;;4994309;28;20188;-70
2023/11/22 06:32:44;;;;;;;1999.90;999.90;;;4.00;99.90;;;;;;4994543;28;20189;-70
2023/11/22 06:35:14;;;;;;;1999.90;999.90;;;4.00;99.90;;;;;;4994613;28;20409;-70
2023/11/22 06:37:40;;;;;;;1999.90;999.90;;;4.00;99.90;;;;;;4994860;28;20173;-70
2023/11/22 06:40:06;;;;;;;1999.90;999.90;;;4.10;99.90;;;;;;4994725;28;20446;-70
2023/11/22 06:42:33;;;;;;;1999.90;999.90;;;4.00;99.90;;;;;;4994601;28;20508;-70
2023/11/22 06:45:00;;;;;;;1999.90;999.90;;;4.00;99.90;;;;;;4994761;28;20440;-70
2023/11/22 06:47:27;;;;;;;1999.90;999.90;;;4.00;99.90;;;;;;4994099;28;20495;-70
2023/11/22 06:49:53;;;;;;;1999.90;999.90;;;4.00;99.90;;;;;;4994441;28;20417;-70
2023/11/22 06:52:19;;;;;;;1999.90;999.90;;;4.00;99.90;;;;;;4994500;28;20516;-70
2023/11/22 06:54:44;;;;;;;1999.90;999.90;;;3.90;99.90;;;;;;4994348;28;20535;-70
2023/11/22 06:57:10;;;;;;;1999.90;999.90;;;3.90;99.90;;;;;;4994520;28;20413;-70
2023/11/22 06:59:36;;;;;;;1999.90;999.90;;;3.90;99.90;;;;;;4994704;28;20512;-70
2023/11/22 07:02:01;;;;;;;1999.90;999.90;;;3.80;99.90;;;;;;4994225;28;20194;-70
2023/11/22 07:04:29;;;;;;;1999.90;999.90;;;3.80;99.90;;;;;;4994695;28;20687;-70
2023/11/22 07:06:54;;;;;;;1999.90;999.90;;;3.80;99.90;;;;;;4994204;28;20166;-70
2023/11/22 07:09:20;;;;;;;1999.90;999.90;;;3.80;99.90;;;;;;4994510;28;20408;-70
2023/11/22 07:11:46;;;;;;;1999.90;999.90;;;3.70;99.90;;;;;;4994136;28;20186;-69
2023/11/22 07:14:11;;;;;;;1999.90;999.90;;;3.60;99.90;;;;;;4994286;28;20229;-69
2023/11/22 07:16:37;;;;;;;1999.90;999.90;;;3.50;99.90;;;;;;4994086;28;20537;-70
2023/11/22 07:19:03;;;;;;;1999.90;999.90;;;3.40;99.90;;;;;;4993586;28;20683;-70
2023/11/22 07:21:32;;;;;;;1999.90;999.90;;;3.40;99.90;;;;;;4994049;28;20265;-70
2023/11/22 07:23:59;;;;;;;1999.90;999.90;;;3.40;99.90;;;;;;4994148;28;20781;-70
2023/11/22 07:26:26;;;;;;;1999.90;999.90;;;3.40;99.90;;;;;;4993843;28;20261;-70
2023/11/22 07:28:52;;;;;;;1999.90;999.90;;;3.30;99.90;;;;;;4994221;28;20189;-70
2023/11/22 07:31:19;;;;;;;1999.90;999.90;;;3.30;99.90;;;;;;4993330;28;20209;-70
2023/11/22 07:33:45;;;;;;;1999.90;999.90;;;3.30;99.90;;;;;;4992821;28;20499;-70
2023/11/22 07:36:14;;;;;;;1999.90;999.90;;;3.20;99.90;;;;;;4993573;28;20657;-70
2023/11/22 07:38:40;;;;;;;1999.90;999.90;;;3.10;99.90;;;;;;4993083;28;20405;-70
2023/11/22 07:41:07;;;;;;;1999.90;999.90;;;2.90;99.90;;;;;;4993567;28;20201;-70
2023/11/22 07:43:32;;;;;;;1999.90;999.90;;;2.90;99.90;;;;;;4993683;28;20185;-69
2023/11/22 07:45:59;;;;;;;1999.90;999.90;;;2.90;99.90;;;;;;4993421;28;20181;-69
2023/11/22 07:48:25;;;;;;;1999.90;999.90;;;3.00;99.90;;;;;;4992989;28;20653;-70
2023/11/22 07:50:51;;;;;;;1999.90;999.90;;;3.00;99.90;;;;;;4993158;28;20206;-70
2023/11/22 07:53:17;;;;;;;1999.90;999.90;;;3.10;99.90;;;;;;4993356;28;20596;-70
2023/11/22 07:55:43;;;;;;;1999.90;999.90;;;3.20;99.90;;;;;;4993088;28;20184;-70
2023/11/22 07:58:10;;;;;;;1999.90;999.90;;;3.30;99.90;;;;;;4993370;28;20165;-70
2023/11/22 08:00:36;;;;;;;1999.90;999.90;;;3.40;99.90;;;;;;4993296;28;20420;-70
2023/11/22 08:03:02;;;;;;;1999.90;999.90;;;3.50;99.90;;;;;;4992753;28;20189;-70
2023/11/22 08:05:36;;;;;;;1999.90;999.90;;;3.60;99.90;;;;;;4992941;28;20256;-69
2023/11/22 08:08:07;;;;;;;1999.90;999.90;;;3.60;99.90;;;;;;4992194;28;20646;-70
2023/11/22 08:10:34;;;;;;;1999.90;999.90;;;3.70;99.90;;;;;;4994491;28;20249;-70
2023/11/22 08:13:00;;;;;;;1999.90;999.90;;;3.80;99.90;;;;;;4993075;28;20653;-70
2023/11/22 08:15:26;;;;;;;1999.90;999.90;;;3.80;99.90;;;;;;4992083;28;20479;-70
2023/11/22 08:17:51;;;;;;;1999.90;999.90;;;3.90;99.90;;;;;;4993017;28;20174;-70
2023/11/22 08:20:17;;;;;;;1999.90;999.90;;;4.00;99.90;;;;;;4992282;28;20173;-70
2023/11/22 08:22:45;;;;;;;1999.90;999.90;;;4.10;99.90;;;;;;4992746;28;20252;-70
2023/11/22 08:25:12;;;;;;;1999.90;999.90;;;4.20;99.90;;;;;;4992904;28;20417;-70
2023/11/22 08:27:41;;;;;;;1999.90;999.90;;;4.20;99.90;;;;;;4993439;28;20535;-70
2023/11/22 08:30:12;;;;;;;1999.90;999.90;;;4.50;99.90;;;;;;4993040;28;20788;-70
2023/11/22 08:32:40;;;;;;;1999.90;999.90;;;4.40;99.90;;;;;;4992853;28;20854;-70
2023/11/22 08:35:08;;;;;;;1999.90;999.90;;;4.40;99.90;;;;;;4992567;28;20591;-70
2023/11/22 08:37:35;;;;;;;1999.90;999.90;;;4.40;99.90;;;;;;4992800;28;20396;-70
2023/11/22 08:40:01;;;;;;;1999.90;999.90;;;4.40;99.90;;;;;;4992676;28;20859;-70
2023/11/22 08:42:26;;;;;;;1999.90;999.90;;;4.40;99.90;;;;;;4992681;28;20799;-70
2023/11/22 08:44:52;;;;;;;1999.90;999.90;;;4.30;99.90;;;;;;4991571;28;20421;-70
2023/11/22 08:47:17;;;;;;;1999.90;999.90;;;4.40;99.90;;;;;;4992479;28;20182;-70
2023/11/22 08:49:43;;;;;;;1999.90;999.90;;;4.30;99.90;;;;;;4992419;28;20173;-70
2023/11/22 08:52:09;;;;;;;1999.90;999.90;;;4.20;99.90;;;;;;4992591;28;20199;-70
2023/11/22 08:54:34;;;;;;;1999.90;999.90;;;4.20;99.90;;;;;;4992299;28;20208;-70
2023/11/22 08:57:00;;;;;;;1999.90;999.90;;;4.20;99.90;;;;;;4992555;28;20169;-70
2023/11/22 08:59:26;;;;;;;1999.90;999.90;;;4.10;99.90;;;;;;4992623;28;20641;-70
2023/11/22 09:01:52;;;;;;;1999.90;999.90;;;4.10;99.90;;;;;;4992377;28;20233;-70
2023/11/22 09:04:18;;;;;;;1999.90;999.90;;;4.10;99.90;;;;;;4992430;28;20432;-70
2023/11/22 09:06:44;;;;;;;1999.90;999.90;;;4.20;99.90;;;;;;4992199;28;20499;-70
2023/11/22 09:09:14;;;;;;;1999.90;999.90;;;4.20;99.90;;;;;;4992621;28;20444;-70
2023/11/22 09:11:40;;;;;;;1999.90;999.90;;;4.30;99.90;;;;;;4992679;28;20209;-70
2023/11/22 09:14:06;;;;;;;1999.90;999.90;;;4.30;99.90;;;;;;4992490;28;20444;-70
2023/11/22 09:16:37;;;;;;;1999.90;999.90;;;4.40;99.90;;;;;;4992155;28;20408;-70
2023/11/22 09:19:03;;;;;;;1999.90;999.90;;;4.50;99.90;;;;;;4992088;28;20177;-70
2023/11/22 09:21:29;;;;;;;1999.90;999.90;;;4.50;99.90;;;;;;4992102;28;20204;-70
2023/11/22 09:23:55;;;;;;;1999.90;999.90;;;4.50;99.90;;;;;;4992248;28;20460;-70
2023/11/22 09:26:20;;;;;;;1999.90;999.90;;;4.50;99.90;;;;;;4992062;28;20909;-70
2023/11/22 09:28:46;;;;;;;1999.90;999.90;;;4.50;99.90;;;;;;4992242;28;20552;-70
2023/11/22 09:31:17;;;;;;;1999.90;999.90;;;4.60;99.90;;;;;;4992065;28;20722;-70
2023/11/22 09:33:43;;;;;;;1999.90;999.90;;;4.70;99.90;;;;;;4992029;28;20217;-70
2023/11/22 09:36:09;;;;;;;1999.90;999.90;;;4.80;99.90;;;;;;4991975;28;20428;-70
2023/11/22 09:38:34;;;;;;;1999.90;999.90;;;5.00;99.90;;;;;;4989075;28;20182;-69
2023/11/22 09:41:02;;;;;;;1999.90;999.90;;;5.00;99.90;;;;;;4987623;28;20436;-69
2023/11/22 09:43:28;;;;;;;1999.90;999.90;;;5.00;99.90;;;;;;4988402;28;20213;-69
2023/11/22 09:45:57;;;;;;;1999.90;999.90;;;5.00;99.90;;;;;;4987232;28;20789;-69
2023/11/22 09:48:25;;;;;;;1999.90;999.90;;;5.10;99.90;;;;;;4987524;28;20424;-70
2023/11/22 09:50:56;;;;;;;1999.90;999.90;;;5.20;99.90;;;;;;4988058;28;20464;-69
2023/11/22 09:53:45;;;;;;;1999.90;999.90;;;5.40;99.90;;;;;;4988234;28;20499;-70
2023/11/22 09:56:14;;;;;;;1999.90;999.90;;;5.70;99.90;;;;;;4987132;28;20411;-70
2023/11/22 09:58:44;;;;;;;1999.90;999.90;;;5.90;99.90;;;;;;4988260;28;20440;-70
2023/11/22 10:01:15;;;;;;;1999.90;999.90;;;6.10;99.90;;;;;;4989899;28;21156;-70
2023/11/22 10:03:41;;;;;;;1999.90;999.90;;;6.30;99.90;;;;;;4990858;28;20416;-70
2023/11/22 10:06:07;;;;;;;1999.90;999.90;;;6.50;99.90;;;;;;4990909;28;20424;-70
2023/11/22 10:08:33;;;;;;;1999.90;999.90;;;6.60;99.90;;;;;;4991774;28;20197;-69
2023/11/22 10:10:59;;;;;;;1999.90;999.90;;;6.70;99.90;;;;;;4992598;28;20439;-69
2023/11/22 10:13:25;;;;;;;1999.90;999.90;;;6.80;91.90;;;;;;4993173;28;20519;-68
2023/11/22 10:15:55;;;;;;;1999.90;999.90;;;6.90;30.50;;;;;;4993235;28;21050;-69
2023/11/22 10:18:21;;;;;;;1999.90;999.90;;;6.90;1.00;;;;;;4993178;28;20456;-68
2023/11/22 10:20:52;;;;;;;1999.90;999.90;;;7.00;1.00;;;;;;4992408;28;20459;-68
2023/11/22 10:23:19;;;;;;;1999.90;999.90;;;7.10;1.00;;;;;;4992605;28;20429;-69
2023/11/22 10:25:44;;;;;;;1999.90;999.90;;;7.30;1.00;;;;;;4992281;28;21148;-69
2023/11/22 10:28:11;;;;;;;1999.90;999.90;;;7.40;1.00;;;;;;4991981;28;20425;-69
2023/11/22 10:30:37;;;;;;;1999.90;999.90;;;7.60;1.00;;;;;;4992385;28;20189;-68
2023/11/22 10:33:03;;;;;;;1999.90;999.90;;;7.60;99.90;;;;;;4993104;28;20503;-69
2023/11/22 10:35:29;;;;;;;1999.90;999.90;;;7.70;99.90;;;;;;4992423;28;20185;-68
2023/11/22 10:37:55;;;;;;;1999.90;999.90;;;7.70;1.00;;;;;;4992380;28;20413;-68
2023/11/22 10:40:21;;;;;;;1999.90;999.90;;;7.60;1.00;;;;;;4992966;28;20416;-68
2023/11/22 10:42:52;;;;;;;1999.90;999.90;;;7.80;99.90;;;;;;4992387;28;20171;-68
2023/11/22 10:45:18;;;;;;;1999.90;999.90;;;7.80;99.90;;;;;;4991900;28;20471;-69
2023/11/22 10:47:45;;;;;;;1999.90;999.90;;;7.90;99.90;;;;;;4993085;28;20417;-68
2023/11/22 10:50:12;;;;;;;1999.90;999.90;;;7.80;1.00;;;;;;4992614;28;20496;-68
2023/11/22 10:52:43;;;;;;;1999.90;999.90;;;7.90;1.00;;;;;;4992241;28;20483;-68
2023/11/22 10:55:11;;;;;;;1999.90;999.90;;;8.00;74.70;;;;;;4992016;28;20459;-68
2023/11/22 10:57:42;;;;;;;1999.90;999.90;;;8.10;1.00;;;;;;4993637;28;20421;-69
2023/11/22 11:00:11;;;;;;;1999.90;999.90;;;8.00;99.90;;;;;;4992093;28;20428;-68
2023/11/22 11:02:45;;;;;;;1999.90;999.90;;;8.20;69.30;;;;;;4991936;28;20444;-68
2023/11/22 11:05:22;;;;;;;1999.90;999.90;;;8.30;99.90;;;;;;4991100;28;20417;-68
2023/11/22 11:08:11;;;;;;;1999.90;999.90;;;8.40;99.90;;;;;;4993413;28;20424;-69
2023/11/22 11:10:44;;;;;;;1999.90;999.90;;;8.50;1.00;;;;;;4992772;28;20441;-68
2023/11/22 11:13:10;;;;;;;1999.90;999.90;;;8.70;99.90;;;;;;4991385;28;20470;-69
2023/11/22 11:15:40;;;;;;;1999.90;999.90;;;9.00;1.00;;;;;;4991384;28;20918;-68
2023/11/22 11:18:10;;;;;;;1999.90;999.90;;;9.30;99.90;;;;;;4992103;28;20418;-68
2023/11/22 11:20:59;;;;;;;1999.90;999.90;;;9.70;1.00;;;;;;4992293;28;20435;-68
2023/11/22 11:23:27;;;;;;;1999.90;999.90;;;10.10;99.90;;;;;;4991602;28;20420;-69
2023/11/22 11:25:56;;;;;;;1999.90;999.90;;;10.50;1.00;;;;;;4991318;28;20511;-68
2023/11/22 11:28:26;;;;;;;1999.90;999.90;;;11.10;99.90;;;;;;4990796;28;20419;-69
2023/11/22 11:30:56;;;;;;;1999.90;999.90;;;11.50;52.80;;;;;;4990099;28;20484;-69
2023/11/22 11:33:33;;;;;;;1999.90;999.90;;;11.80;1.00;;;;;;4989234;28;20531;-69
2023/11/22 11:36:00;;;;;;;1999.90;999.90;;;12.10;1.00;;;;;;4989152;28;20420;-69
2023/11/22 11:38:35;;;;;;;1999.90;999.90;;;12.10;99.90;;;;;;4989488;28;20418;-69
2023/11/22 11:41:11;;;;;;;1999.90;999.90;;;12.00;99.90;;;;;;4989658;28;20435;-69
2023/11/22 11:43:45;;;;;;;1999.90;999.90;;;11.70;99.90;;;;;;4988778;28;20879;-69
2023/11/22 11:46:11;;;;;;;1999.90;999.90;;;11.30;99.90;;;;;;4986304;28;20491;-69
2023/11/22 11:48:37;;;;;;;1999.90;999.90;;;11.20;99.90;;;;;;4989181;28;20409;-69
2023/11/22 11:51:03;;;;;;;1999.90;999.90;;;11.20;99.90;;;;;;4988655;28;20973;-69
2023/11/22 11:53:31;;;;;;;1999.90;999.90;;;11.30;99.90;;;;;;4989353;28;20209;-69
2023/11/22 11:55:57;;;;;;;1999.90;999.90;;;11.30;99.90;;;;;;4989442;28;20180;-69
2023/11/22 11:58:23;;;;;;;1999.90;999.90;;;11.10;99.90;;;;;;4988570;28;20408;-69
2023/11/22 12:00:52;;;;;;;1999.90;999.90;;;11.20;99.90;;;;;;4988487;28;20470;-69
2023/11/22 12:03:21;;;;;;;1999.90;999.90;;;11.40;99.90;;;;;;4989345;28;20610;-69
2023/11/22 12:05:48;;;;;;;1999.90;999.90;;;11.40;99.90;;;;;;4988402;28;20424;-69
2023/11/22 12:08:18;;;;;;;1999.90;999.90;;;11.60;99.90;;;;;;4988604;28;20421;-69